Terminal Aerodrome Forecast
Issued by NWS

Home | Current Version | Previous Version | Text Only | Print | Product List | Glossary On
Versions: 1 2 3 4 5 6 7 8 9 10 11 12 13 14 15
000
FTAK31 PAJN 271724
TAFAPG
TAF
PAPG 271724Z 2718/2818 06004KT P6SM BKN025 BKN040
     FM272000 06004KT P6SM VCSH BKN040
     FM280600 VRB04KT P6SM -SHRA BKN025 OVC050
      TEMPO 2810/2814 4SM -SHRA BKN015 OVC030
     FM281600 VRB04KT P6SM VCSH SCT025 OVC050
      AMD LTD TO CLD VIS AND WIND 2806/2815=

USA.gov is the U.S. government's official web portal to all federal, state and local government web resources and services.